Latest Weather Observations for Bundaberg

IDQ60801

Issued at 10:32 pm EST Wednesday 25 May 2022 (issued every 10 minutes, with the page automatically refreshed every 10 minutes)

About weather observations | Map of weather stations | Latest weather observations for QLD | Other Formats
Station Details ID: 039128 Name: BUNDABERG AERO Lat: -24.91 Lon: 152.32 Height: 30.82 m
Data from the previous 72 hours. | See also: Recent months at Bundaberg
Date/Time
EST
Temp
°C
App
Temp
°C
Dew
Point
°C
Rel
Hum
%
Delta-T
°C
Wind Press
QNH
hPa
Press
MSL
hPa
Rain since
9am
mm
Dir  Spd
km/h
Gust
km/h
Spd
kts
Gust
kts
25/10:30pm 18.2 18.9 18.0 99 0.1 SSW 11 15 6 8 1016.9 1016.8 16.6
25/10:00pm 18.1 19.2 17.9 99 0.1 S 9 15 5 8 1017.0 1016.9 16.6
25/09:30pm 18.1 18.4 17.8 98 0.2 S 13 17 7 9 1017.3 1017.2 16.6
25/09:00pm 18.1 18.2 17.5 96 0.4 SSE 13 17 7 9 1017.5 1017.4 16.6
25/08:30pm 18.0 18.6 17.7 98 0.2 SSE 11 15 6 8 1017.4 1017.3 16.6
25/08:00pm 17.9 18.1 17.7 99 0.1 SSE 13 19 7 10 1017.6 1017.5 16.6
25/07:30pm 18.0 18.3 17.8 99 0.1 SSE 13 20 7 11 1017.5 1017.4 16.6
25/07:00pm 18.1 17.6 17.9 99 0.1 SE 17 22 9 12 1017.6 1017.5 16.2
25/06:35pm 18.0 17.5 17.8 99 0.1 SE 17 26 9 14 1017.2 1017.1 16.2
25/06:30pm 17.9 17.4 17.7 99 0.1 SSE 17 22 9 12 1017.1 1017.0 16.2
25/06:00pm 18.3 17.4 18.3 100 0.0 SE 20 28 11 15 1016.9 1016.8 14.2
25/05:32pm 18.6 19.2 18.6 100 0.0 SE 13 19 7 10 1016.6 1016.5 11.8
25/05:30pm 18.6 19.2 18.6 100 0.0 ESE 13 17 7 9 1016.5 1016.4 11.8
25/05:26pm 18.5 19.1 18.5 100 0.0 ESE 13 17 7 9 1016.5 1016.4 11.8
25/05:00pm 18.3 18.7 18.1 99 0.1 SSE 13 19 7 10 1016.4 1016.3 10.2
25/04:57pm 18.2 18.2 18.0 99 0.1 SSE 15 19 8 10 1016.4 1016.3 10.2
25/04:43pm 18.2 17.8 18.0 99 0.1 SSE 17 26 9 14 1016.1 1016.0 9.4
25/04:30pm 18.2 17.2 18.0 99 0.1 SE 20 28 11 15 1016.0 1015.9 9.4
25/04:00pm 18.8 19.4 18.6 99 0.1 ESE 13 19 7 10 1016.0 1015.9 4.2
25/03:56pm 18.7 19.3 18.5 99 0.1 ESE 13 17 7 9 1015.9 1015.8 3.6
25/03:46pm 18.7 18.1 18.4 98 0.2 E 19 26 10 14 1015.9 1015.8 3.4
25/03:30pm 18.7 17.9 18.0 96 0.4 ESE 19 30 10 16 1016.0 1015.9 2.2
25/03:25pm 19.1 19.2 18.4 96 0.4 ESE 15 20 8 11 1016.0 1015.9 2.0
25/03:14pm 19.5 18.6 18.3 93 0.7 E 20 28 11 15 1015.9 1015.8 0.8
25/03:01pm 20.5 20.7 18.6 89 1.2 SSE 15 24 8 13 1015.7 1015.6 0.8
25/03:00pm 20.2 20.2 18.1 88 1.3 SSE 15 24 8 13 1015.7 1015.6 0.8
25/02:50pm 19.9 17.5 17.3 85 1.6 SSE 26 44 14 24 1015.6 1015.5 0.8
25/02:30pm 22.5 20.5 16.5 69 3.7 SE 22 32 12 17 1015.5 1015.4 0.0
25/02:00pm 23.1 20.8 16.6 67 4.0 SE 24 32 13 17 1015.4 1015.3 0.0
25/01:30pm 23.4 21.3 17.2 68 3.8 SE 24 35 13 19 1015.7 1015.6 0.0
25/01:00pm 23.4 21.9 16.7 66 4.1 SSE 20 32 11 17 1016.1 1016.0 0.0
25/12:30pm 23.3 21.7 16.1 64 4.4 SSE 19 26 10 14 1016.7 1016.6 0.0
25/12:00pm 23.0 20.6 16.3 66 4.1 SE 24 32 13 17 1016.7 1016.6 0.0
25/11:30am 22.2 20.9 16.7 71 3.4 SSE 19 32 10 17 1017.4 1017.3 0.0
25/11:00am 23.2 21.8 17.9 72 3.3 SE 22 32 12 17 1017.9 1017.8 0.0
25/10:30am 21.5 19.4 17.1 76 2.7 SSE 24 32 13 17 1018.4 1018.3 0.0
25/10:00am 21.2 19.1 17.2 78 2.4 SE 24 41 13 22 1018.8 1018.7 0.0
25/09:30am 21.5 18.9 17.7 79 2.4 SSE 28 35 15 19 1018.8 1018.7 0.0
25/09:00am 20.3 17.9 17.3 83 1.8 SE 26 35 14 19 1018.8 1018.7 1.0
25/08:30am 19.0 17.7 17.3 90 1.0 SSE 20 32 11 17 1018.6 1018.5 1.0
25/08:00am 18.3 16.8 16.8 91 0.9 SSE 20 30 11 16 1018.4 1018.3 1.0
25/07:30am 17.8 17.0 17.0 95 0.5 SSE 17 24 9 13 1018.3 1018.2 1.0
25/07:00am 17.2 16.6 16.6 96 0.4 SSE 15 26 8 14 1018.2 1018.1 1.0
25/06:30am 17.0 16.3 16.5 97 0.3 S 15 20 8 11 1018.2 1018.1 1.0
25/06:00am 17.0 16.3 16.4 96 0.4 S 15 20 8 11 1017.8 1017.7 1.0
25/05:30am 17.0 16.3 16.5 97 0.3 S 15 20 8 11 1018.0 1017.9 1.0
25/05:00am 17.0 16.4 16.7 98 0.2 SSW 15 19 8 10 1017.8 1017.7 1.0
25/04:30am 16.9 16.3 16.6 98 0.2 S 15 20 8 11 1017.3 1017.2 1.0
25/04:00am 17.0 16.8 16.7 98 0.2 S 13 19 7 10 1017.5 1017.4 1.0
25/03:30am 17.1 16.6 16.9 99 0.1 S 15 22 8 12 1017.5 1017.4 1.0
25/03:00am 17.0 16.8 16.8 99 0.1 S 13 20 7 11 1017.6 1017.5 1.0
25/02:30am 17.1 16.6 16.9 99 0.1 S 15 20 8 11 1017.8 1017.7 1.0
25/02:00am 17.2 17.1 17.0 99 0.1 S 13 20 7 11 1017.9 1017.8 1.0
25/01:30am 17.2 16.7 17.0 99 0.1 S 15 24 8 13 1018.1 1018.0 1.0
25/01:00am 17.2 17.1 17.0 99 0.1 S 13 19 7 10 1018.2 1018.1 1.0
25/12:30am 17.3 16.8 17.0 98 0.2 S 15 20 8 11 1018.3 1018.2 1.0
25/12:00am 17.4 16.9 16.9 97 0.3 S 15 20 8 11 1018.3 1018.2 1.0
 
Date/Time
EST
Temp
°C
App
Temp
°C
Dew
Point
°C
Rel
Hum
%
Delta-T
°C
Wind Press
QNH
hPa
Press
MSL
hPa
Rain since
9am
mm
Dir  Spd
km/h
Gust
km/h
Spd
kts
Gust
kts
24/11:30pm 17.3 17.6 17.0 98 0.2 S 11 17 6 9 1018.7 1018.6 1.0
24/11:00pm 17.6 18.0 17.3 98 0.2 S 11 15 6 8 1019.3 1019.2 1.0
24/10:30pm 17.8 17.9 17.5 98 0.2 SSW 13 17 7 9 1019.7 1019.6 1.0
24/10:12pm 17.7 18.5 17.4 98 0.2 S 9 13 5 7 1019.6 1019.5 1.0
24/10:00pm 17.7 18.5 17.2 97 0.3 S 9 13 5 7 1019.8 1019.7 1.0
24/09:40pm 18.1 17.9 16.8 92 0.8 SSE 13 19 7 10 1019.8 1019.7 0.2
24/09:30pm 18.2 18.4 16.7 91 0.9 S 11 19 6 10 1019.5 1019.4 0.2
24/09:00pm 18.3 18.1 16.8 91 0.9 SSE 13 22 7 12 1019.3 1019.2 0.2
24/08:30pm 18.0 18.7 17.0 94 0.6 SE 9 13 5 7 1019.2 1019.1 0.2
24/08:00pm 17.9 18.3 16.4 91 0.9 SSE 9 13 5 7 1019.1 1019.0 0.2
24/07:30pm 18.2 18.3 16.4 89 1.1 SSE 11 15 6 8 1019.2 1019.1 0.2
24/07:00pm 18.3 18.4 16.5 89 1.1 S 11 15 6 8 1018.7 1018.6 0.2
24/06:30pm 18.5 18.5 16.3 87 1.3 S 11 17 6 9 1018.4 1018.3 0.2
24/06:00pm 18.9 18.7 16.7 87 1.3 SSE 13 17 7 9 1018.0 1017.9 0.2
24/05:30pm 19.4 18.8 16.6 84 1.7 SE 15 19 8 10 1017.9 1017.8 0.0
24/05:00pm 20.2 17.9 16.6 80 2.2 SE 24 33 13 18 1017.3 1017.2 0.0
24/04:30pm 21.2 17.9 17.0 77 2.6 SE 30 37 16 20 1017.1 1017.0 0.0
24/04:00pm 20.7 17.7 16.7 78 2.4 SE 28 43 15 23 1016.9 1016.8 0.0
24/03:51pm 20.9 17.7 16.3 75 2.8 SE 28 46 15 25 1017.1 1017.0 0.0
24/03:30pm 20.7 18.3 17.3 81 2.1 SE 26 37 14 20 1016.9 1016.8 0.0
24/03:00pm 23.5 20.7 16.3 64 4.4 SE 26 33 14 18 1016.5 1016.4 0.0
24/02:30pm 24.2 21.0 16.2 61 4.9 SE 28 39 15 21 1016.5 1016.4 0.0
24/02:00pm 24.3 21.1 16.3 61 4.9 SE 28 35 15 19 1016.4 1016.3 0.0
24/01:30pm 24.2 20.2 16.2 61 4.9 SE 32 39 17 21 1016.6 1016.5 0.0
24/01:00pm 23.8 19.6 16.3 63 4.6 SE 33 43 18 23 1016.7 1016.6 0.0
24/12:30pm 24.2 19.9 17.0 64 4.4 ESE 35 48 19 26 1016.9 1016.8 0.0
24/12:00pm 24.2 20.6 17.7 67 4.1 SE 33 46 18 25 1017.5 1017.4 0.0
24/11:30am 24.2 20.3 17.0 64 4.4 SE 33 41 18 22 1017.9 1017.8 0.0
24/11:00am 22.9 18.3 16.0 65 4.2 SE 35 46 19 25 1018.3 1018.2 0.0
24/10:30am 22.9 19.1 17.1 70 3.6 SE 33 44 18 24 1018.5 1018.4 0.0
24/10:00am 22.4 18.8 17.1 72 3.3 SE 32 39 17 21 1018.9 1018.8 0.0
24/09:30am 22.4 20.7 18.2 77 2.6 SE 24 35 13 19 1018.9 1018.8 0.0
24/09:00am 21.1 20.3 18.1 83 1.9 SSE 19 28 10 15 1019.2 1019.1 6.6
24/08:30am 19.8 19.2 17.6 87 1.4 SSE 17 28 9 15 1018.7 1018.6 6.6
24/08:00am 19.2 19.2 18.0 93 0.7 SSE 15 22 8 12 1018.3 1018.2 6.6
24/07:30am 18.3 17.8 17.8 97 0.3 SSE 17 28 9 15 1018.2 1018.1 6.6
24/07:00am 18.2 17.4 17.9 98 0.2 SSE 19 28 10 15 1018.1 1018.0 6.6
24/06:30am 17.7 17.0 17.4 98 0.2 SSE 17 24 9 13 1017.9 1017.8 6.6
24/06:00am 17.6 16.9 17.3 98 0.2 S 17 22 9 12 1017.7 1017.6 6.6
24/05:30am 17.4 16.6 17.2 99 0.1 S 17 22 9 12 1017.7 1017.6 6.6
24/05:00am 17.3 17.3 17.1 99 0.1 S 13 20 7 11 1017.3 1017.2 6.4
24/04:30am 17.5 16.8 17.3 99 0.1 S 17 22 9 12 1017.3 1017.2 6.4
24/04:16am 17.6 17.3 17.4 99 0.1 S 15 24 8 13 1017.1 1017.0 6.4
24/04:09am 17.6 16.9 17.4 99 0.1 SSE 17 24 9 13 1017.2 1017.1 6.4
24/04:00am 17.6 17.3 17.4 99 0.1 SSE 15 22 8 12 1017.5 1017.4 6.4
24/03:47am 17.7 16.6 17.4 98 0.2 SSE 19 26 10 14 1017.6 1017.5 6.2
24/03:32am 17.8 17.2 17.5 98 0.2 SSE 17 28 9 15 1017.5 1017.4 6.0
24/03:30am 17.8 17.2 17.5 98 0.2 SSE 17 24 9 13 1017.5 1017.4 6.0
24/03:16am 17.7 17.8 17.4 98 0.2 S 13 20 7 11 1017.6 1017.5 6.0
24/03:00am 17.7 17.4 17.4 98 0.2 S 15 20 8 11 1017.6 1017.5 6.0
24/02:30am 17.9 17.2 17.4 97 0.3 S 17 26 9 14 1017.8 1017.7 5.8
24/02:00am 18.0 16.8 17.5 97 0.3 SSE 20 28 11 15 1017.8 1017.7 5.8
24/01:30am 17.8 17.2 17.5 98 0.2 SSE 17 20 9 11 1017.8 1017.7 5.8
24/01:27am 17.8 17.2 17.5 98 0.2 SSE 17 24 9 13 1017.8 1017.7 5.8
24/01:17am 17.9 16.9 17.6 98 0.2 SSE 19 28 10 15 1018.1 1018.0 5.8
24/01:00am 18.0 17.0 17.5 97 0.3 SSE 19 26 10 14 1018.2 1018.1 5.8
24/12:30am 18.1 17.5 17.6 97 0.3 SSE 17 24 9 13 1018.2 1018.1 5.8
24/12:00am 18.0 17.8 17.7 98 0.2 SSE 15 22 8 12 1018.6 1018.5 5.8
 
Date/Time
EST
Temp
°C
App
Temp
°C
Dew
Point
°C
Rel
Hum
%
Delta-T
°C
Wind Press
QNH
hPa
Press
MSL
hPa
Rain since
9am
mm
Dir  Spd
km/h
Gust
km/h
Spd
kts
Gust
kts
23/11:30pm 18.2 17.7 17.7 97 0.3 SSE 17 20 9 11 1018.6 1018.5 5.8
23/11:00pm 18.1 17.5 17.6 97 0.3 SSE 17 22 9 12 1018.9 1018.8 5.8
23/10:30pm 18.2 17.6 17.6 96 0.4 SSE 17 26 9 14 1019.1 1019.0 5.8
23/10:00pm 18.2 16.9 17.2 94 0.6 SSE 20 28 11 15 1019.1 1019.0 5.8
23/09:30pm 18.4 18.1 17.4 94 0.6 SSE 15 22 8 12 1019.3 1019.2 5.8
23/09:00pm 18.3 17.8 17.7 96 0.4 S 17 26 9 14 1018.8 1018.7 5.8
23/08:30pm 18.4 18.4 18.1 98 0.2 S 15 22 8 12 1018.8 1018.7 5.8
23/08:00pm 18.6 18.2 18.1 97 0.3 SSE 17 22 9 12 1019.1 1019.0 5.8
23/07:30pm 18.8 18.4 18.1 96 0.4 SSE 17 22 9 12 1019.0 1018.9 5.8
23/07:00pm 18.7 18.1 18.4 98 0.2 SSE 19 24 10 13 1018.9 1018.8 5.8
23/06:44pm 18.7 17.9 18.5 99 0.1 SSE 20 28 11 15 1019.0 1018.9 5.8
23/06:31pm 18.7 18.8 18.4 98 0.2 SSE 15 20 8 11 1018.9 1018.8 5.6
23/06:30pm 18.7 18.8 18.4 98 0.2 SSE 15 24 8 13 1018.9 1018.8 5.6
23/06:04pm 19.0 20.7 18.5 97 0.3 S 7 15 4 8 1018.4 1018.3 2.4
23/06:00pm 18.9 20.7 18.2 96 0.4 SSW 6 7 3 4 1018.1 1018.0 2.2
23/05:30pm 19.3 20.5 17.4 89 1.2 SE 7 11 4 6 1017.8 1017.7 2.0
23/05:00pm 20.1 19.9 16.7 81 2.1 SSE 13 22 7 12 1017.6 1017.5 1.4
23/04:30pm 21.0 20.3 16.4 75 2.8 SSE 15 20 8 11 1017.6 1017.5 1.2
23/04:00pm 20.8 19.5 16.8 78 2.4 SSE 19 28 10 15 1017.2 1017.1 1.2
23/03:30pm 20.4 19.7 17.4 83 1.8 SSE 17 24 9 13 1016.9 1016.8 1.0
23/03:00pm 21.4 20.0 17.0 76 2.7 SSE 20 30 11 16 1017.3 1017.2 0.4
23/02:30pm 21.1 20.5 18.5 85 1.6 SE 19 22 10 12 1016.8 1016.7 0.4
23/02:00pm 20.6 21.4 18.2 86 1.5 SE 11 20 6 11 1017.4 1017.3 0.2
23/01:50pm 20.5 19.7 17.9 85 1.6 SE 19 22 10 12 1017.5 1017.4 0.2
23/01:36pm 20.1 18.6 17.7 86 1.5 ESE 22 32 12 17 1017.4 1017.3 0.2
23/01:30pm 20.4 18.8 17.4 83 1.8 ESE 22 39 12 21 1017.3 1017.2 0.0
23/01:00pm 22.7 21.3 16.9 70 3.6 SE 20 32 11 17 1017.5 1017.4 0.0
23/12:30pm 22.8 20.8 16.4 67 3.9 SSE 22 37 12 20 1017.4 1017.3 0.0
23/12:00pm 22.5 20.5 16.5 69 3.6 SSE 22 33 12 18 1018.0 1017.9 0.0
23/11:30am 22.6 21.2 16.9 70 3.5 SSE 20 32 11 17 1018.6 1018.5 0.0
23/11:00am 22.4 20.0 16.4 69 3.6 SSE 24 30 13 16 1018.2 1018.1 0.0
23/10:30am 21.8 20.3 16.7 73 3.1 SSE 20 28 11 15 1019.0 1018.9 0.0
23/10:00am 21.6 20.0 16.6 73 3.0 SSE 20 28 11 15 1019.2 1019.1 0.0
23/09:30am 20.0 19.8 16.6 81 2.1 S 13 20 7 11 1019.5 1019.4 0.0
23/09:00am 18.9 17.8 16.3 85 1.6 SSE 17 24 9 13 1019.1 1019.0 0.6
23/08:30am 18.4 18.0 16.2 87 1.3 SSE 13 22 7 12 1019.1 1019.0 0.6
23/08:00am 18.2 17.5 16.4 89 1.1 S 15 20 8 11 1018.9 1018.8 0.6
23/07:30am 17.6 16.6 16.5 93 0.7 SSE 17 22 9 12 1018.9 1018.8 0.6
23/07:00am 17.4 17.5 16.4 94 0.6 SSE 11 13 6 7 1018.7 1018.6 0.6
23/06:30am 17.4 17.8 16.4 94 0.6 SSE 9 13 5 7 1018.4 1018.3 0.6
23/06:00am 17.4 17.5 16.6 95 0.5 S 11 15 6 8 1018.3 1018.2 0.6
23/05:30am 17.4 18.0 16.8 96 0.4 S 9 13 5 7 1017.6 1017.5 0.6
23/05:00am 17.4 17.9 16.6 95 0.5 S 9 11 5 6 1017.9 1017.8 0.6
23/04:30am 17.5 18.1 16.7 95 0.5 S 9 13 5 7 1017.6 1017.5 0.6
23/04:00am 17.5 17.7 16.7 95 0.5 S 11 15 6 8 1017.3 1017.2 0.6
23/03:30am 17.4 17.6 16.8 96 0.4 S 11 17 6 9 1017.2 1017.1 0.6
23/03:00am 17.3 17.1 16.8 97 0.3 S 13 19 7 10 1016.4 1016.3 0.6
23/02:30am 17.4 17.6 16.8 96 0.4 S 11 15 6 8 1017.1 1017.0 0.6
23/02:00am 17.3 15.8 16.8 97 0.3 SSE 20 30 11 16 1017.2 1017.1 0.6
23/01:52am 17.4 16.1 16.9 97 0.3 SSE 19 26 10 14 1017.5 1017.4 0.6
23/01:37am 17.3 16.6 16.5 95 0.5 S 15 20 8 11 1017.4 1017.3 0.6
23/01:30am 17.5 16.8 16.5 94 0.6 SSE 15 20 8 11 1017.5 1017.4 0.6
23/01:00am 17.5 17.6 16.4 93 0.7 SSE 11 15 6 8 1017.5 1017.4 0.6
23/12:30am 17.4 17.0 16.1 92 0.8 SSE 13 20 7 11 1017.4 1017.3 0.6
23/12:00am 17.5 17.6 16.4 93 0.7 S 11 15 6 8 1017.6 1017.5 0.6
 
Date/Time
EST
Temp
°C
App
Temp
°C
Dew
Point
°C
Rel
Hum
%
Delta-T
°C
Wind Press
QNH
hPa
Press
MSL
hPa
Rain since
9am
mm
Dir  Spd
km/h
Gust
km/h
Spd
kts
Gust
kts
22/11:30pm 17.7 17.5 16.6 93 0.7 SSE 13 19 7 10 1017.7 1017.6 0.6
22/11:00pm 17.6 17.4 16.8 95 0.5 SSE 13 19 7 10 1017.8 1017.7 0.6

Other formats

Comma delimited format used in spreadsheet applications
http://www.bom.gov.au/fwo/IDQ60801/IDQ60801.94387.axf

JavaScript Object Notation format (JSON) in row-major order
http://www.bom.gov.au/fwo/IDQ60801/IDQ60801.94387.json

Data quality

Most of these data are generated automatically and are frequently updated. Quality checks on data are not normally performed. It is possible for incorrect values to appear. Refer to information at About Latest Weather Observations and please check the disclaimer before using these data.